Terminal Aerodrome Forecast
Issued by NWS Bismarck, ND

Home | Current Version | Previous Version | Text Only | Print | Product List | Glossary Off
Versions: 1 2 3 4 5 6 7 8 9 10 11 12 13 14 15 16 17 18 19 20

000
FTUS43 KBIS 191739
TAFBIS
TAF
KBIS 191739Z 1918/2018 10009KT P6SM BKN250
     FM192100 13008KT P6SM SCT110
     FM200700 00000KT P6SM OVC060
     FM201000 32006KT P6SM -RA OVC050
     FM201200 29006KT 3SM -RA BR OVC025
     FM201500 29009KT P6SM BKN080=

USA.gov is the U.S. government's official web portal to all federal, state and local government web resources and services.